Time;durP1;ratioP1;P1;durP2;ratioP2;P2;SDS_P1;SDS_P2;PMS_P1;PMS_P2;Temp;Humidity;BMP_temperature;BMP_pressure;BME280_temperature;BME280_humidity;BME280_pressure;Samples;Min_cycle;Max_cycle;Signal;HPM_P1;HPM_P2
2022/05/15 00:00:48;;;;;;;7.22;3.60;;;;;;;13.81;79.79;96543.25;5072531;28;20222;-90
2022/05/15 00:03:17;;;;;;;3.97;2.75;;;;;;;13.80;77.47;96544.25;5072615;28;20212;-90
2022/05/15 00:05:45;;;;;;;4.70;3.60;;;;;;;13.69;77.76;96535.97;5076427;28;20692;-90
2022/05/15 00:08:12;;;;;;;8.40;3.63;;;;;;;13.64;77.65;96533.88;5076977;28;20675;-89
2022/05/15 00:10:40;;;;;;;5.00;3.47;;;;;;;13.71;78.12;96537.44;5076828;28;20220;-89
2022/05/15 00:13:07;;;;;;;5.65;3.83;;;;;;;13.56;78.33;96531.34;5076613;28;20242;-89
2022/05/15 00:15:34;;;;;;;5.50;3.50;;;;;;;13.55;78.14;96528.91;5076038;28;20200;-90
2022/05/15 00:18:02;;;;;;;5.87;3.73;;;;;;;13.51;78.34;96525.81;5076290;28;20208;-90
2022/05/15 00:20:29;;;;;;;8.50;4.20;;;;;;;13.33;78.08;96535.19;5075925;28;20236;-90
2022/05/15 00:22:56;;;;;;;7.63;4.50;;;;;;;13.40;78.42;96530.75;5076123;28;20247;-91
2022/05/15 00:25:22;;;;;;;4.63;3.20;;;;;;;13.21;78.23;96527.91;5075329;28;20200;-89
2022/05/15 00:27:49;;;;;;;6.90;3.10;;;;;;;13.14;78.92;96530.47;5075454;28;20203;-89
2022/05/15 00:30:16;;;;;;;4.43;2.83;;;;;;;13.32;80.71;96524.78;5075293;28;20717;-89
2022/05/15 00:32:42;;;;;;;6.87;2.87;;;;;;;13.35;80.16;96525.22;5075400;28;20196;-89
2022/05/15 00:35:11;;;;;;;5.75;2.97;;;;;;;13.59;79.41;96527.50;5075662;28;20265;-89
2022/05/15 00:37:38;;;;;;;5.87;3.20;;;;;;;13.39;77.60;96519.38;5075025;28;20680;-90
2022/05/15 00:40:06;;;;;;;3.23;2.40;;;;;;;13.38;77.05;96516.06;5075999;28;20274;-89
2022/05/15 00:42:33;;;;;;;5.32;2.85;;;;;;;13.30;78.60;96518.84;5075403;28;20200;-88
2022/05/15 00:44:59;;;;;;;5.07;2.47;;;;;;;13.16;80.06;96522.34;5075426;28;20234;-89
2022/05/15 00:47:26;;;;;;;3.92;2.95;;;;;;;13.28;79.05;96520.88;5075332;28;20274;-89
2022/05/15 00:49:55;;;;;;;3.58;2.45;;;;;;;13.25;79.16;96523.88;5075431;28;20202;-89
2022/05/15 00:52:28;;;;;;;4.33;2.60;;;;;;;13.33;78.73;96516.66;5075393;28;20215;-89
2022/05/15 00:54:58;;;;;;;4.03;2.25;;;;;;;13.24;78.37;96525.72;5075522;28;20185;-91
2022/05/15 00:57:31;;;;;;;5.77;2.33;;;;;;;12.96;79.58;96516.81;5075828;28;20188;-90
2022/05/15 01:00:01;;;;;;;2.93;2.30;;;;;;;13.19;78.67;96525.44;5076036;28;20654;-90
2022/05/15 01:02:32;;;;;;;3.63;2.20;;;;;;;13.30;79.18;96524.13;5076074;28;20593;-90
2022/05/15 01:04:58;;;;;;;4.60;2.30;;;;;;;13.20;79.04;96523.59;5075260;28;20204;-89
2022/05/15 01:07:26;;;;;;;2.97;1.87;;;;;;;13.25;78.69;96523.88;5075719;28;20228;-90
2022/05/15 01:09:53;;;;;;;4.43;2.10;;;;;;;13.10;78.67;96523.91;5075393;28;20200;-90
2022/05/15 01:12:20;;;;;;;4.57;2.07;;;;;;;12.85;80.05;96529.66;5075333;28;20201;-89
2022/05/15 01:14:48;;;;;;;6.00;2.20;;;;;;;12.97;80.61;96529.03;5075124;28;20246;-89
2022/05/15 01:17:15;;;;;;;5.50;2.60;;;;;;;12.98;80.36;96528.06;5075320;28;20645;-89
2022/05/15 01:19:43;;;;;;;9.87;2.50;;;;;;;13.00;80.10;96527.88;5075028;28;20204;-90
2022/05/15 01:22:15;;;;;;;4.10;2.22;;;;;;;12.96;80.89;96521.31;5075472;28;20224;-90
2022/05/15 01:24:43;;;;;;;3.70;2.50;;;;;;;12.95;81.45;96519.66;5075199;28;20193;-90
2022/05/15 01:27:11;;;;;;;6.90;2.70;;;;;;;12.82;82.13;96524.75;5075081;28;20259;-90
2022/05/15 01:29:42;;;;;;;8.90;2.60;;;;;;;12.96;81.89;96526.59;5074799;28;20200;-90
2022/05/15 01:32:09;;;;;;;3.95;2.33;;;;;;;12.78;78.71;96524.28;5075034;28;20648;-90
2022/05/15 01:34:36;;;;;;;3.47;2.03;;;;;;;12.60;80.92;96523.03;5074838;28;20235;-90
2022/05/15 01:37:02;;;;;;;8.77;2.53;;;;;;;12.46;81.55;96518.56;5074662;28;20211;-89
2022/05/15 01:39:32;;;;;;;3.60;2.17;;;;;;;12.70;81.70;96518.25;5074689;28;20193;-89
2022/05/15 01:41:59;;;;;;;5.67;2.53;;;;;;;12.55;83.08;96517.47;5074460;28;20220;-89
2022/05/15 01:44:26;;;;;;;4.57;2.27;;;;;;;12.72;81.62;96512.81;5074680;28;20200;-89
2022/05/15 01:46:52;;;;;;;4.43;2.60;;;;;;;12.71;80.22;96511.97;5074671;28;20653;-90
2022/05/15 01:49:19;;;;;;;3.03;2.20;;;;;;;12.66;80.02;96518.81;5074657;28;20208;-90
2022/05/15 01:51:47;;;;;;;6.77;2.50;;;;;;;12.27;81.87;96513.78;5074352;28;20220;-90
2022/05/15 01:54:14;;;;;;;4.53;2.57;;;;;;;12.54;80.57;96510.53;5074600;28;20200;-89
2022/05/15 01:56:42;;;;;;;4.20;2.47;;;;;;;12.53;81.79;96513.34;5074495;28;20562;-90
2022/05/15 01:59:10;;;;;;;7.53;2.60;;;;;;;12.40;82.93;96513.19;5074744;28;20205;-89
2022/05/15 02:01:36;;;;;;;4.17;2.70;;;;;;;12.06;82.63;96514.69;5074572;28;20594;-89
2022/05/15 02:04:04;;;;;;;4.47;2.60;;;;;;;12.30;81.70;96513.41;5074987;28;20204;-89
2022/05/15 02:06:30;;;;;;;4.53;2.60;;;;;;;12.30;81.03;96512.63;5074852;28;20536;-89
2022/05/15 02:08:57;;;;;;;5.53;2.97;;;;;;;12.28;82.77;96512.81;5074726;28;20209;-90
2022/05/15 02:11:23;;;;;;;9.10;3.47;;;;;;;12.29;83.33;96508.31;5074409;28;20228;-89
2022/05/15 02:13:51;;;;;;;7.37;3.47;;;;;;;12.43;84.56;96510.16;5073919;28;20215;-89
2022/05/15 02:16:18;;;;;;;6.80;3.27;;;;;;;12.42;83.38;96512.00;5074164;28;20200;-90
2022/05/15 02:18:44;;;;;;;5.07;3.17;;;;;;;12.44;82.75;96504.69;5073996;28;20203;-89
2022/05/15 02:21:11;;;;;;;3.03;2.40;;;;;;;12.44;79.23;96509.97;5074380;28;20620;-90
2022/05/15 02:23:37;;;;;;;4.70;2.90;;;;;;;12.33;80.12;96497.22;5073897;28;20200;-89
2022/05/15 02:26:04;;;;;;;5.97;3.37;;;;;;;12.27;81.61;96495.28;5073226;28;20563;-90
2022/05/15 02:28:30;;;;;;;9.40;3.37;;;;;;;12.31;83.12;96504.50;5073335;28;20200;-89
2022/05/15 02:30:58;;;;;;;13.40;3.67;;;;;;;12.60;83.21;96509.81;5073516;28;20220;-90
2022/05/15 02:33:25;;;;;;;5.47;3.23;;;;;;;12.46;82.62;96501.84;5073272;28;20205;-89
2022/05/15 02:35:51;;;;;;;8.27;3.37;;;;;;;12.41;80.14;96502.41;5073942;28;20475;-89
2022/05/15 02:38:18;;;;;;;5.07;3.50;;;;;;;12.37;79.53;96501.13;5073958;28;20200;-89
2022/05/15 02:40:44;;;;;;;9.57;4.10;;;;;;;12.37;80.81;96509.06;5073416;28;20243;-89
2022/05/15 02:43:11;;;;;;;5.70;3.97;;;;;;;12.14;82.59;96501.38;5073326;28;20207;-89
2022/05/15 02:45:37;;;;;;;6.83;3.90;;;;;;;12.02;83.22;96502.81;5073265;28;20204;-91
2022/05/15 02:51:03;;;;;;;4.10;3.40;;;;;;;12.28;81.78;96494.31;5073013;28;20223;-89
2022/05/15 02:51:03;;;;;;;6.03;3.30;;;;;;;12.16;81.23;96490.44;5072767;28;20638;-89
2022/05/15 02:53:30;;;;;;;4.90;3.13;;;;;;;12.12;81.27;96498.09;5072765;28;20606;-89
2022/05/15 02:55:56;;;;;;;4.53;3.07;;;;;;;12.17;81.51;96497.38;5073005;28;20634;-90
2022/05/15 02:58:23;;;;;;;4.73;3.03;;;;;;;12.05;82.21;96491.88;5073099;28;20657;-89
2022/05/15 03:00:49;;;;;;;5.50;3.00;;;;;;;12.01;82.54;96495.91;5073327;28;20557;-89
2022/05/15 03:03:17;;;;;;;8.10;3.37;;;;;;;11.86;81.60;96501.16;5073170;28;20649;-88
2022/05/15 03:05:43;;;;;;;4.47;3.10;;;;;;;11.67;80.73;96495.53;5072940;28;20584;-89
2022/05/15 03:08:10;;;;;;;5.17;3.13;;;;;;;11.71;82.44;96497.66;5073214;28;20224;-89
2022/05/15 03:10:36;;;;;;;4.03;2.70;;;;;;;11.73;82.73;96495.63;5072545;28;20224;-90
2022/05/15 03:13:03;;;;;;;5.50;3.77;;;;;;;11.89;82.64;96498.16;5072936;28;20200;-89
2022/05/15 03:15:29;;;;;;;5.13;3.67;;;;;;;11.81;81.99;96500.88;5072272;28;20196;-89
2022/05/15 03:17:56;;;;;;;6.73;3.77;;;;;;;11.58;81.40;96493.94;5072785;28;20374;-89
2022/05/15 03:20:27;;;;;;;5.53;3.43;;;;;;;11.62;81.51;96496.06;5072842;28;20225;-89
2022/05/15 03:22:53;;;;;;;8.07;3.83;;;;;;;11.72;81.72;96494.00;5072756;28;20733;-89
2022/05/15 03:25:20;;;;;;;7.30;4.00;;;;;;;11.76;83.72;96497.09;5072655;28;20212;-89
2022/05/15 03:27:46;;;;;;;6.37;4.00;;;;;;;11.88;83.40;96493.06;5072288;28;20232;-89
2022/05/15 03:30:14;;;;;;;6.70;3.67;;;;;;;11.98;82.42;96489.16;5072044;28;20720;-90
2022/05/15 03:32:41;;;;;;;6.40;3.13;;;;;;;11.82;81.36;96484.00;5072225;28;20211;-89
2022/05/15 03:35:11;;;;;;;9.53;3.73;;;;;;;11.99;81.04;96488.16;5072847;28;20196;-91
2022/05/15 03:37:40;;;;;;;4.63;3.10;;;;;;;11.64;82.83;96490.59;5072522;28;20207;-88
2022/05/15 03:40:08;;;;;;;4.80;3.00;;;;;;;11.81;83.05;96489.47;5072556;28;20599;-89
2022/05/15 03:42:34;;;;;;;7.77;3.40;;;;;;;11.82;83.01;96493.75;5072425;28;20235;-89
2022/05/15 03:45:01;;;;;;;5.30;2.80;;;;;;;11.81;82.15;96495.59;5072489;28;20205;-88
2022/05/15 03:47:27;;;;;;;4.43;2.97;;;;;;;11.75;81.53;96485.72;5072338;28;20700;-90
2022/05/15 03:49:54;;;;;;;4.13;2.97;;;;;;;11.55;81.76;96489.84;5072448;28;20569;-90
2022/05/15 03:52:21;;;;;;;3.93;2.60;;;;;;;11.61;81.49;96496.25;5071780;28;20613;-89
2022/05/15 03:54:49;;;;;;;3.77;2.60;;;;;;;11.81;81.82;96486.81;5072491;28;20649;-89
2022/05/15 03:57:16;;;;;;;4.83;3.10;;;;;;;11.80;83.41;96493.09;5072826;28;20200;-90
2022/05/15 03:59:42;;;;;;;5.00;2.40;;;;;;;11.90;82.08;96497.16;5072481;28;20205;-89
2022/05/15 04:02:10;;;;;;;6.87;2.77;;;;;;;11.82;81.76;96496.41;5073072;28;20208;-89
2022/05/15 04:04:37;;;;;;;5.33;3.03;;;;;;;11.81;82.32;96502.66;5072572;28;20200;-89
2022/05/15 04:07:05;;;;;;;5.73;3.10;;;;;;;11.76;82.78;96507.66;5072014;28;20224;-91
2022/05/15 04:09:33;;;;;;;5.80;3.30;;;;;;;11.90;82.66;96509.53;5072569;28;20669;-89
2022/05/15 04:12:01;;;;;;;6.93;3.07;;;;;;;11.45;85.12;96504.25;5072074;28;20227;-88
2022/05/15 04:14:27;;;;;;;6.57;3.23;;;;;;;11.66;83.66;96505.28;5072293;28;20200;-88
2022/05/15 04:16:54;;;;;;;5.43;2.67;;;;;;;11.86;83.18;96501.16;5072447;28;20200;-89
2022/05/15 04:19:20;;;;;;;3.53;2.67;;;;;;;11.81;82.23;96505.31;5072250;28;20201;-90
2022/05/15 04:21:47;;;;;;;3.87;2.90;;;;;;;11.77;82.52;96510.16;5072447;28;20216;-89
2022/05/15 04:24:16;;;;;;;3.17;2.47;;;;;;;11.95;82.66;96501.88;5072256;28;20216;-88
2022/05/15 04:26:43;;;;;;;4.03;2.60;;;;;;;11.78;84.46;96510.94;5072354;28;20208;-88
2022/05/15 04:29:12;;;;;;;4.77;2.93;;;;;;;12.11;84.47;96499.91;5071895;28;20204;-89
2022/05/15 04:31:38;;;;;;;4.10;3.10;;;;;;;12.06;84.56;96496.19;5071764;28;20225;-89
2022/05/15 04:34:06;;;;;;;4.73;2.87;;;;;;;12.31;83.82;96504.50;5071883;28;20211;-89
2022/05/15 04:36:33;;;;;;;4.17;2.67;;;;;;;11.89;84.20;96507.88;5071843;28;20201;-89
2022/05/15 04:39:01;;;;;;;10.10;3.27;;;;;;;11.69;86.76;96512.03;5072463;28;20205;-89
2022/05/15 04:41:28;;;;;;;11.97;3.20;;;;;;;12.13;85.84;96505.00;5071837;28;20256;-89
2022/05/15 04:43:54;;;;;;;7.37;3.50;;;;;;;12.39;85.47;96500.97;5072213;28;20209;-89
2022/05/15 04:46:25;;;;;;;6.17;3.37;;;;;;;12.76;84.88;96500.88;5071932;28;20215;-89
2022/05/15 04:48:52;;;;;;;5.77;3.70;;;;;;;12.72;84.18;96507.53;5072185;28;20303;-89
2022/05/15 04:51:19;;;;;;;5.93;3.40;;;;;;;12.81;85.24;96507.22;5074840;28;20588;-89
2022/05/15 04:53:45;;;;;;;5.20;3.53;;;;;;;12.82;84.76;96504.41;5075574;28;20657;-89
2022/05/15 04:56:11;;;;;;;6.77;3.77;;;;;;;12.88;86.03;96518.72;5075422;28;20197;-89
2022/05/15 04:58:38;;;;;;;9.33;4.00;;;;;;;12.85;86.34;96513.78;5075688;28;20208;-89
2022/05/15 05:01:04;;;;;;;5.70;4.07;;;;;;;12.87;87.13;96517.13;5075470;28;20227;-88
2022/05/15 05:03:32;;;;;;;10.07;4.00;;;;;;;13.29;86.59;96515.38;5075409;28;20197;-88
2022/05/15 05:05:58;;;;;;;8.23;4.23;;;;;;;13.30;84.05;96521.50;5075333;28;20200;-89
2022/05/15 05:08:25;;;;;;;5.73;3.67;;;;;;;13.42;84.54;96510.22;5075022;28;20235;-89
2022/05/15 05:10:51;;;;;;;5.47;3.90;;;;;;;13.36;84.80;96520.75;5075226;28;20221;-89
2022/05/15 05:13:18;;;;;;;5.20;3.63;;;;;;;13.55;84.57;96520.97;5074887;28;20566;-89
2022/05/15 05:15:44;;;;;;;9.77;4.57;;;;;;;13.70;84.55;96525.19;5075235;28;20207;-89
2022/05/15 05:18:14;;;;;;;6.10;3.75;;;;;;;13.89;84.32;96524.56;5074737;28;20201;-89
2022/05/15 05:20:43;;;;;;;8.60;3.83;;;;;;;14.05;83.08;96513.69;5074863;28;20216;-90
2022/05/15 05:23:09;;;;;;;8.48;4.00;;;;;;;13.97;83.02;96529.72;5074717;28;20200;-89
2022/05/15 05:25:36;;;;;;;6.68;3.85;;;;;;;14.23;83.36;96529.97;5074628;28;20200;-89
2022/05/15 05:28:03;;;;;;;8.30;4.38;;;;;;;14.25;83.31;96526.09;5074657;28;20224;-90
2022/05/15 05:30:30;;;;;;;9.43;4.43;;;;;;;14.32;83.69;96534.94;5074495;28;20594;-89
2022/05/15 05:32:56;;;;;;;8.10;3.90;;;;;;;14.44;82.98;96528.09;5074656;28;20235;-89
2022/05/15 05:35:24;;;;;;;7.32;3.83;;;;;;;14.69;82.94;96532.75;5074475;28;20200;-89
2022/05/15 05:37:53;;;;;;;7.82;3.95;;;;;;;14.75;82.49;96526.69;5074990;28;20200;-90
2022/05/15 05:40:21;;;;;;;5.75;3.63;;;;;;;14.88;81.32;96536.53;5075080;28;20223;-89
2022/05/15 05:42:47;;;;;;;9.40;4.20;;;;;;;14.89;78.89;96541.66;5074300;28;20196;-90
2022/05/15 05:45:15;;;;;;;7.88;3.72;;;;;;;15.02;79.50;96527.63;5073940;28;20209;-90
2022/05/15 05:47:44;;;;;;;7.38;3.78;;;;;;;15.08;81.88;96534.78;5074474;28;20220;-89
2022/05/15 05:50:11;;;;;;;8.85;4.43;;;;;;;15.19;81.01;96535.06;5074390;28;20221;-89
2022/05/15 05:52:38;;;;;;;8.43;4.28;;;;;;;15.36;79.63;96541.69;5074501;28;20224;-90
2022/05/15 05:55:10;;;;;;;11.68;4.38;;;;;;;15.61;79.80;96540.16;5074535;28;20299;-89
2022/05/15 05:57:36;;;;;;;9.68;4.93;;;;;;;15.56;79.58;96548.69;5074216;28;20181;-90
2022/05/15 06:00:03;;;;;;;8.98;4.68;;;;;;;15.87;78.42;96536.53;5074151;28;20216;-89
2022/05/15 06:02:30;;;;;;;6.47;4.47;;;;;;;15.67;79.74;96536.66;5073297;28;20201;-89
2022/05/15 06:04:55;;;;;;;7.97;4.20;;;;;;;15.90;78.46;96545.94;5074494;28;20204;-90
2022/05/15 06:07:25;;;;;;;7.75;4.53;;;;;;;16.34;77.99;96544.34;5074453;28;20224;-90
2022/05/15 06:09:52;;;;;;;7.40;4.32;;;;;;;16.27;79.49;96535.56;5074462;28;20201;-90
2022/05/15 06:12:23;;;;;;;8.45;4.68;;;;;;;16.65;79.42;96541.91;5074231;28;20201;-89
2022/05/15 06:14:49;;;;;;;9.68;4.40;;;;;;;16.51;80.38;96546.41;5074198;28;20185;-89
2022/05/15 06:17:20;;;;;;;6.88;4.18;;;;;;;16.68;80.15;96536.94;5074612;28;20200;-89
2022/05/15 06:19:47;;;;;;;7.35;3.90;;;;;;;16.60;73.84;96542.50;5074631;28;20630;-90
2022/05/15 06:22:13;;;;;;;12.77;4.20;;;;;;;16.74;75.60;96551.28;5074090;28;20205;-90
2022/05/15 06:24:40;;;;;;;8.73;4.07;;;;;;;16.81;76.43;96541.44;5074335;28;20207;-89
2022/05/15 06:27:07;;;;;;;5.18;3.25;;;;;;;17.02;75.78;96557.16;5074055;28;20258;-89
2022/05/15 06:29:37;;;;;;;6.28;3.95;;;;;;;17.28;74.47;96548.09;5073777;28;20196;-89
2022/05/15 06:32:05;;;;;;;8.77;3.50;;;;;;;17.35;74.15;96551.56;5074161;28;20200;-90
2022/05/15 06:34:31;;;;;;;8.45;4.07;;;;;;;17.23;73.00;96545.22;5074168;28;20201;-90
2022/05/15 06:36:57;;;;;;;8.77;3.80;;;;;;;17.11;74.97;96544.22;5074168;28;20211;-89
2022/05/15 06:39:24;;;;;;;6.03;3.60;;;;;;;17.36;74.05;96547.88;5074073;28;20200;-89
2022/05/15 06:41:51;;;;;;;10.65;3.95;;;;;;;17.55;72.97;96538.94;5074055;28;20789;-89
2022/05/15 06:44:18;;;;;;;6.38;3.70;;;;;;;17.79;74.10;96543.56;5073263;28;20212;-90
2022/05/15 06:46:46;;;;;;;6.95;4.05;;;;;;;17.86;74.44;96545.16;5073934;28;20234;-89
2022/05/15 06:49:13;;;;;;;7.45;3.75;;;;;;;17.69;71.71;96535.19;5073813;28;20220;-89
2022/05/15 06:51:40;;;;;;;5.90;3.47;;;;;;;17.83;73.17;96539.41;5074194;28;20212;-89
2022/05/15 06:54:07;;;;;;;8.82;4.07;;;;;;;17.89;69.61;96535.91;5074199;28;20208;-90
2022/05/15 06:59:18;;;;;;;7.60;4.00;;;;;;;18.05;73.00;96543.38;5074344;28;20546;-90
2022/05/15 07:01:45;;;;;;;6.95;4.20;;;;;;;18.38;70.07;96534.97;5074087;28;20220;-89
2022/05/15 07:04:12;;;;;;;8.82;4.00;;;;;;;18.25;68.28;96538.75;5074112;28;20200;-89
2022/05/15 07:06:38;;;;;;;6.45;3.60;;;;;;;18.35;72.46;96539.91;5073798;28;20257;-90
2022/05/15 07:09:05;;;;;;;8.73;3.90;;;;;;;18.52;69.67;96538.31;5073743;28;20571;-90
2022/05/15 07:11:31;;;;;;;5.90;3.70;;;;;;;18.78;71.24;96533.56;5073221;28;20723;-89
2022/05/15 07:13:58;;;;;;;6.47;3.67;;;;;;;18.98;70.77;96531.53;5073567;28;20664;-90
2022/05/15 07:16:24;;;;;;;8.50;3.17;;;;;;;19.01;65.30;96536.41;5073808;28;20205;-90
2022/05/15 07:18:52;;;;;;;9.23;3.17;;;;;;;19.33;62.03;96529.94;5073258;28;20207;-90
2022/05/15 07:21:19;;;;;;;5.78;2.75;;;;;;;19.30;63.10;96523.16;5073425;28;20224;-90
2022/05/15 07:23:45;;;;;;;4.38;2.90;;;;;;;19.46;64.10;96529.75;5073882;28;20227;-90
2022/05/15 07:26:12;;;;;;;6.40;3.33;;;;;;;19.47;62.75;96526.06;5074464;28;20201;-90
2022/05/15 07:28:38;;;;;;;4.93;3.08;;;;;;;19.72;66.50;96519.56;5074158;28;20699;-90
2022/05/15 07:31:04;;;;;;;5.93;2.80;;;;;;;20.04;63.26;96532.50;5075365;28;20227;-91
2022/05/15 07:33:31;;;;;;;8.40;2.95;;;;;;;20.02;62.22;96534.59;5073581;28;20207;-90
2022/05/15 07:35:59;;;;;;;7.00;3.50;;;;;;;20.37;62.37;96536.28;5073456;28;20550;-90
2022/05/15 07:38:25;;;;;;;7.30;3.40;;;;;;;19.99;68.69;96526.19;5073349;28;20665;-91
2022/05/15 07:40:52;;;;;;;5.78;3.33;;;;;;;20.19;62.74;96519.50;5073799;28;20227;-90
2022/05/15 07:43:19;;;;;;;7.30;3.40;;;;;;;20.17;62.39;96524.25;5073653;28;20216;-92
2022/05/15 07:45:46;;;;;;;6.85;3.47;;;;;;;20.12;61.95;96529.47;5073357;28;20261;-90
2022/05/15 07:48:14;;;;;;;7.20;3.35;;;;;;;20.26;63.87;96529.06;5073109;28;20243;-90
2022/05/15 07:50:40;;;;;;;5.32;3.50;;;;;;;20.30;62.66;96529.41;5073541;28;20274;-90
2022/05/15 07:53:09;;;;;;;9.15;3.50;;;;;;;20.43;61.61;96521.16;5073431;28;20208;-91
2022/05/15 07:55:35;;;;;;;5.32;3.60;;;;;;;20.23;62.77;96521.47;5073659;28;20200;-91
2022/05/15 07:58:01;;;;;;;5.15;3.80;;;;;;;20.09;65.96;96526.47;5073634;28;20215;-90
2022/05/15 08:00:28;;;;;;;5.63;3.58;;;;;;;20.32;61.60;96528.13;5073425;28;20220;-90
2022/05/15 08:03:02;;;;;;;5.40;3.33;;;;;;;20.80;63.36;96530.66;5072887;28;20649;-90
2022/05/15 08:08:14;;;;;;;10.25;4.13;;;;;;;21.13;61.39;96519.13;5072776;28;20216;-90
2022/05/15 08:10:44;;;;;;;5.50;3.60;;;;;;;21.18;59.61;96521.91;5073170;28;20220;-90
2022/05/15 08:13:13;;;;;;;7.07;3.90;;;;;;;20.93;63.47;96529.38;5073162;28;20204;-90
2022/05/15 08:15:40;;;;;;;9.43;3.40;;;;;;;21.19;59.81;96520.03;5072668;28;20337;-91
2022/05/15 08:23:36;;;;;;;7.18;3.35;;;;;;;21.59;58.90;96516.38;5072566;28;20314;-90
2022/05/15 08:26:05;;;;;;;7.90;3.55;;;;;;;21.51;65.00;96519.41;5075645;28;20189;-90
2022/05/15 08:28:32;;;;;;;6.57;3.55;;;;;;;21.67;57.11;96521.34;5076834;28;20247;-90
2022/05/15 08:30:59;;;;;;;13.15;3.55;;;;;;;21.81;58.90;96511.97;5076718;28;20220;-90
2022/05/15 08:33:26;;;;;;;6.63;3.80;;;;;;;21.50;61.96;96509.72;5076043;28;20200;-91
2022/05/15 08:35:52;;;;;;;8.02;3.28;;;;;;;21.60;59.50;96517.97;5076866;28;20309;-89
2022/05/15 08:38:19;;;;;;;6.47;3.70;;;;;;;21.35;58.28;96508.59;5076227;28;20291;-91
2022/05/15 08:40:53;;;;;;;5.18;3.40;;;;;;;22.01;59.31;96509.66;5075973;28;20212;-91
2022/05/15 08:43:21;;;;;;;10.90;3.15;;;;;;;22.04;61.67;96501.94;5076737;28;20526;-90
2022/05/15 08:46:00;;;;;;;5.97;3.53;;;;;;;22.65;60.10;96504.63;5076682;28;20287;-90
2022/05/15 08:48:29;;;;;;;5.90;3.42;;;;;;;22.52;56.83;96495.03;5076788;28;20203;-91
2022/05/15 08:50:56;;;;;;;5.47;3.08;;;;;;;22.71;57.72;96509.84;5076026;28;20217;-90
2022/05/15 08:53:30;;;;;;;7.22;3.40;;;;;;;22.86;56.93;96510.03;5076285;28;20613;-90
2022/05/15 08:55:59;;;;;;;6.43;3.53;;;;;;;22.81;55.65;96510.78;5076493;28;20628;-90
2022/05/15 08:58:35;;;;;;;6.30;3.22;;;;;;;22.81;63.54;96516.16;5077354;28;20200;-90
2022/05/15 09:01:02;;;;;;;6.18;2.90;;;;;;;23.16;58.53;96515.91;5076930;28;20224;-91
2022/05/15 09:03:30;;;;;;;10.00;3.10;;;;;;;23.34;58.00;96511.88;5076269;28;20201;-90
2022/05/15 09:06:02;;;;;;;8.52;3.70;;;;;;;23.58;56.08;96510.53;5076809;28;20561;-90
2022/05/15 09:08:54;;;;;;;6.38;2.90;;;;;;;23.76;55.68;96507.56;5075998;28;20220;-91
2022/05/15 09:11:36;;;;;;;6.20;3.30;;;;;;;23.86;52.33;96506.88;5076034;28;20252;-90
2022/05/15 09:14:10;;;;;;;4.72;3.05;;;;;;;23.50;56.64;96513.69;5076032;28;20591;-90
2022/05/15 09:16:39;;;;;;;8.90;3.58;;;;;;;23.63;52.67;96497.16;5075891;28;20187;-90
2022/05/15 09:19:07;;;;;;;5.35;2.83;;;;;;;23.80;59.01;96497.09;5076101;28;20196;-89
2022/05/15 09:21:34;;;;;;;4.65;2.63;;;;;;;23.44;53.46;96497.72;5076018;28;20224;-91
2022/05/15 09:24:08;;;;;;;4.55;2.83;;;;;;;24.05;51.10;96492.81;5076058;28;20204;-90
2022/05/15 09:26:44;;;;;;;6.38;3.10;;;;;;;23.91;55.59;96505.03;5076292;28;20191;-90
2022/05/15 09:29:18;;;;;;;8.18;2.80;;;;;;;23.64;51.09;96501.47;5075713;28;20250;-91
2022/05/15 09:31:45;;;;;;;4.40;2.53;;;;;;;23.76;55.04;96498.69;5076197;28;20224;-91
2022/05/15 09:34:24;;;;;;;6.80;2.70;;;;;;;24.40;50.32;96499.38;5075979;28;20532;-90
2022/05/15 09:36:52;;;;;;;5.70;3.10;;;;;;;24.44;55.82;96503.19;5075508;28;20193;-90
2022/05/15 09:39:24;;;;;;;10.00;3.25;;;;;;;24.56;55.26;96498.41;5077033;28;20193;-90
2022/05/15 09:44:48;;;;;;;5.82;2.80;;;;;;;24.55;50.99;96496.00;5076939;28;20334;-93
2022/05/15 09:47:25;;;;;;;8.32;3.33;;;;;;;24.93;50.26;96493.84;5075662;28;20207;-89
2022/05/15 09:49:52;;;;;;;6.40;2.90;;;;;;;24.48;51.75;96498.91;5075347;28;20208;-90
2022/05/15 09:52:24;;;;;;;7.57;3.17;;;;;;;24.70;47.78;96492.31;5075185;28;20567;-90
2022/05/15 09:54:51;;;;;;;4.50;2.90;;;;;;;24.86;53.45;96499.47;5074790;28;20204;-91
2022/05/15 09:57:23;;;;;;;4.80;2.35;;;;;;;24.70;49.27;96492.31;5076644;28;20207;-91
2022/05/15 09:59:59;;;;;;;5.97;2.70;;;;;;;24.98;50.33;96486.59;5074955;28;20216;-91
2022/05/15 10:02:28;;;;;;;7.82;2.35;;;;;;;25.26;49.95;96486.25;5075629;28;20184;-91
2022/05/15 10:04:56;;;;;;;6.95;2.75;;;;;;;25.24;50.49;96491.91;5075282;28;20204;-90
2022/05/15 10:07:32;;;;;;;4.28;2.15;;;;;;;25.12;49.89;96482.41;5075203;28;20189;-91
2022/05/15 10:10:13;;;;;;;4.15;2.17;;;;;;;25.23;49.79;96479.50;5075487;28;20251;-92
2022/05/15 10:12:42;;;;;;;6.82;2.30;;;;;;;24.85;46.59;96484.34;5075406;28;20234;-91
2022/05/15 10:15:11;;;;;;;4.53;1.90;;;;;;;25.16;50.33;96483.50;5075060;28;20208;-92
2022/05/15 10:17:45;;;;;;;2.83;1.60;;;;;;;25.18;48.47;96476.78;5075752;28;20199;-92
2022/05/15 10:20:21;;;;;;;3.63;1.98;;;;;;;25.41;45.12;96464.75;5075478;28;20216;-92
2022/05/15 10:22:53;;;;;;;3.00;1.60;;;;;;;25.70;48.62;96469.47;5075546;28;20341;-90
2022/05/15 10:25:24;;;;;;;5.07;1.70;;;;;;;25.88;45.31;96464.41;5075305;28;20247;-92
2022/05/15 10:27:59;;;;;;;4.65;1.60;;;;;;;25.94;43.05;96466.03;5075090;28;20224;-90
2022/05/15 10:30:32;;;;;;;3.80;1.73;;;;;;;26.21;44.43;96469.31;5074398;28;20239;-91
2022/05/15 10:33:04;;;;;;;4.95;2.13;;;;;;;26.18;44.11;96477.94;5075326;28;20255;-90
2022/05/15 10:35:43;;;;;;;2.60;1.80;;;;;;;26.34;44.65;96466.13;5074380;28;20196;-91
2022/05/15 10:38:22;;;;;;;5.00;2.08;;;;;;;26.33;46.29;96469.88;5074001;28;20184;-91
2022/05/15 10:40:54;;;;;;;4.18;1.80;;;;;;;26.36;47.00;96463.94;5073930;28;20216;-93
2022/05/15 10:43:42;;;;;;;2.28;1.83;;;;;;;26.42;43.17;96467.47;5075599;28;20185;-90
2022/05/15 10:46:16;;;;;;;4.97;1.77;;;;;;;26.07;43.79;96460.13;5074765;28;20197;-90
2022/05/15 10:48:53;;;;;;;3.47;1.70;;;;;;;26.42;40.85;96456.66;5073690;28;20216;-91
2022/05/15 10:51:23;;;;;;;4.88;2.20;;;;;;;26.25;42.41;96450.69;5074477;28;20277;-91
2022/05/15 10:57:26;;;;;;;3.10;1.55;;;;;;;26.56;42.37;96447.75;5075157;28;20707;-92
2022/05/15 11:00:06;;;;;;;4.97;1.60;;;;;;;26.75;42.98;96446.09;5074434;28;20196;-92
2022/05/15 11:03:14;;;;;;;8.10;2.28;;;;;;;26.75;44.32;96441.50;5075060;28;20192;-90
2022/05/15 11:05:49;;;;;;;8.25;1.70;;;;;;;26.77;43.23;96443.91;5074853;28;20204;-91
2022/05/15 11:08:27;;;;;;;5.60;1.90;;;;;;;26.12;40.75;96432.28;5074337;28;20512;-90
2022/05/15 11:11:01;;;;;;;2.22;1.30;;;;;;;26.14;41.33;96428.22;5075202;28;20216;-91
2022/05/15 11:13:35;;;;;;;3.55;1.58;;;;;;;26.74;41.18;96428.25;5076150;28;20211;-90
2022/05/15 11:16:09;;;;;;;8.70;1.88;;;;;;;26.71;43.79;96429.59;5075857;28;20180;-90
2022/05/15 11:19:03;;;;;;;4.00;1.63;;;;;;;26.82;42.30;96433.09;5075191;28;20196;-89
2022/05/15 11:21:44;;;;;;;3.67;1.70;;;;;;;26.42;42.22;96427.75;5074541;28;20220;-89
2022/05/15 11:24:15;;;;;;;4.43;1.70;;;;;;;26.74;42.92;96433.66;5076068;28;20196;-90
2022/05/15 11:26:45;;;;;;;6.13;1.80;;;;;;;26.63;42.49;96429.38;5076664;28;20198;-91
2022/05/15 11:29:16;;;;;;;2.22;1.35;;;;;;;26.56;43.25;96415.28;5076676;28;20232;-93
2022/05/15 11:31:49;;;;;;;5.57;1.38;;;;;;;26.95;42.54;96419.00;5075135;28;20227;-90
2022/05/15 11:34:17;;;;;;;1.88;1.20;;;;;;;26.40;41.44;96416.41;5076923;28;20215;-89
2022/05/15 11:36:45;;;;;;;2.80;1.20;;;;;;;26.84;41.25;96420.94;5076086;28;20264;-91
2022/05/15 11:39:27;;;;;;;6.13;1.60;;;;;;;27.24;37.67;96402.72;5076541;28;20223;-91
2022/05/15 11:42:14;;;;;;;4.90;1.48;;;;;;;27.22;41.13;96420.31;5077607;28;20216;-90
2022/05/15 11:44:43;;;;;;;3.75;1.40;;;;;;;26.98;39.45;96407.69;5076391;28;20216;-92
2022/05/15 11:47:34;;;;;;;3.28;1.38;;;;;;;27.28;41.39;96389.47;5074356;28;20722;-91
2022/05/15 11:50:10;;;;;;;5.10;1.45;;;;;;;27.21;43.25;96391.63;5080364;28;20228;-92
2022/05/15 11:52:40;;;;;;;4.43;1.33;;;;;;;27.18;40.05;96393.00;5080754;28;20215;-91
2022/05/15 11:55:40;;;;;;;3.15;1.27;;;;;;;27.13;37.47;96395.72;5076767;28;20187;-93
2022/05/15 11:58:17;;;;;;;2.13;1.13;;;;;;;27.28;37.61;96378.63;5076328;28;20195;-92
2022/05/15 12:00:43;;;;;;;2.65;1.20;;;;;;;27.38;40.70;96384.81;5078239;28;20281;-92